Time;durP1;ratioP1;P1;durP2;ratioP2;P2;SDS_P1;SDS_P2;PMS_P1;PMS_P2;Temp;Humidity;BMP_temperature;BMP_pressure;BME280_temperature;BME280_humidity;BME280_pressure;Samples;Min_cycle;Max_cycle;Signal;HPM_P1;HPM_P2
2023/08/21 00:01:34;;;;;;;9.63;7.47;;;;;;;;;;5035968;28;20216;-74
2023/08/21 00:04:39;;;;;;;9.07;6.60;;;;;;;;;;5024004;28;20180;-73
2023/08/21 00:07:43;;;;;;;8.80;6.90;;;;;;;;;;5024119;28;20173;-74
2023/08/21 00:10:47;;;;;;;10.57;7.80;;;;;;;;;;5035867;28;20193;-74
2023/08/21 00:13:51;;;;;;;9.30;7.23;;;;;;;;;;5036101;28;20192;-74
2023/08/21 00:16:55;;;;;;;10.30;7.53;;;;;;;;;;5023908;28;20176;-73
2023/08/21 00:20:00;;;;;;;9.67;7.87;;;;;;;;;;5023601;28;20205;-73
2023/08/21 00:23:04;;;;;;;8.10;7.30;;;;;;;;;;5035870;28;20213;-73
2023/08/21 00:26:08;;;;;;;8.70;7.70;;;;;;;;;;5023439;28;20181;-73
2023/08/21 00:29:12;;;;;;;8.50;7.70;;;;;;;;;;5023693;28;20177;-73
2023/08/21 00:32:16;;;;;;;8.70;7.43;;;;;;;;;;5023362;28;20291;-73
2023/08/21 00:35:20;;;;;;;9.87;7.73;;;;;;;;;;5023304;28;20200;-73
2023/08/21 00:38:24;;;;;;;9.30;8.30;;;;;;;;;;5012208;28;20203;-73
2023/08/21 00:41:28;;;;;;;9.20;8.20;;;;;;;;;;5012096;28;20213;-73
2023/08/21 00:44:32;;;;;;;10.03;7.50;;;;;;;;;;5012176;28;20517;-73
2023/08/21 00:47:37;;;;;;;8.87;7.53;;;;;;;;;;5023582;28;20177;-73
2023/08/21 00:50:42;;;;;;;11.97;7.63;;;;;;;;;;5023062;28;20529;-73
2023/08/21 00:53:46;;;;;;;8.43;7.30;;;;;;;;;;5035121;28;20672;-73
2023/08/21 00:56:52;;;;;;;8.67;7.77;;;;;;;;;;5011862;28;20521;-73
2023/08/21 00:59:56;;;;;;;10.97;7.83;;;;;;;;;;5011508;28;20699;-73
2023/08/21 01:02:59;;;;;;;8.83;7.53;;;;;;;;;;5011577;28;20577;-73
2023/08/21 01:06:04;;;;;;;9.97;8.70;;;;;;;;;;5034020;28;20185;-73
2023/08/21 01:09:35;;;;;;;9.23;7.97;;;;;;;;;;5034831;28;20173;-73
2023/08/21 01:12:50;;;;;;;10.47;7.97;;;;;;;;;;5011299;28;20698;-73
2023/08/21 01:15:56;;;;;;;9.03;8.13;;;;;;;;;;5022545;28;20185;-73
2023/08/21 01:19:01;;;;;;;9.60;8.20;;;;;;;;;;5034909;28;20208;-73
2023/08/21 01:22:06;;;;;;;9.27;8.10;;;;;;;;;;5034560;28;20557;-73
2023/08/21 01:25:10;;;;;;;12.20;7.80;;;;;;;;;;5022320;28;20181;-73
2023/08/21 01:28:14;;;;;;;11.73;7.70;;;;;;;;;;5022634;28;20188;-73
2023/08/21 01:31:23;;;;;;;8.70;7.60;;;;;;;;;;5034482;28;20212;-73
2023/08/21 01:34:29;;;;;;;11.40;8.13;;;;;;;;;;5034674;28;20200;-73
2023/08/21 01:37:34;;;;;;;9.07;7.93;;;;;;;;;;4999924;28;20193;-73
2023/08/21 01:40:39;;;;;;;10.60;7.80;;;;;;;;;;5011280;28;20212;-73
2023/08/21 01:43:43;;;;;;;10.53;7.80;;;;;;;;;;5034497;28;20185;-73
2023/08/21 01:46:48;;;;;;;8.60;7.60;;;;;;;;;;5021941;28;20556;-73
2023/08/21 01:49:53;;;;;;;11.20;8.20;;;;;;;;;;5011264;28;20181;-73
2023/08/21 01:52:57;;;;;;;10.43;8.67;;;;;;;;;;5033895;28;20220;-72
2023/08/21 01:56:01;;;;;;;9.37;8.47;;;;;;;;;;5022109;28;20177;-73
2023/08/21 01:59:06;;;;;;;10.40;8.47;;;;;;;;;;5021934;28;20176;-73
2023/08/21 02:02:10;;;;;;;8.97;8.07;;;;;;;;;;5021534;28;20216;-73
2023/08/21 02:05:15;;;;;;;14.30;8.83;;;;;;;;;;5021938;28;20185;-73
2023/08/21 02:08:19;;;;;;;9.10;8.00;;;;;;;;;;5021757;28;20177;-72
2023/08/21 02:11:23;;;;;;;9.40;8.10;;;;;;;;;;5021519;28;20220;-73
2023/08/21 02:14:29;;;;;;;14.17;9.37;;;;;;;;;;5033657;28;20185;-73
2023/08/21 02:17:33;;;;;;;8.73;7.90;;;;;;;;;;5021214;28;20172;-72
2023/08/21 02:20:37;;;;;;;11.03;9.00;;;;;;;;;;5010308;28;20541;-73
2023/08/21 02:23:42;;;;;;;10.63;9.07;;;;;;;;;;5010282;28;20640;-72
2023/08/21 02:26:48;;;;;;;10.50;8.23;;;;;;;;;;5033647;28;20201;-73
2023/08/21 02:29:52;;;;;;;11.03;8.87;;;;;;;;;;5033349;28;20660;-73
2023/08/21 02:32:56;;;;;;;15.47;9.60;;;;;;;;;;5021093;28;20692;-73
2023/08/21 02:36:00;;;;;;;9.77;8.70;;;;;;;;;;5020981;28;20676;-73
2023/08/21 02:39:07;;;;;;;9.90;8.87;;;;;;;;;;5021175;28;20193;-73
2023/08/21 02:42:12;;;;;;;12.97;9.73;;;;;;;;;;5033225;28;20217;-73
2023/08/21 02:45:16;;;;;;;11.47;8.50;;;;;;;;;;5021302;28;20176;-72
2023/08/21 02:48:20;;;;;;;9.40;8.40;;;;;;;;;;5021323;28;20184;-73
2023/08/21 02:51:24;;;;;;;11.40;8.47;;;;;;;;;;5001666;28;20208;-72
2023/08/21 02:54:28;;;;;;;11.37;8.20;;;;;;;;;;5011317;28;20533;-72
2023/08/21 02:57:33;;;;;;;9.07;8.17;;;;;;;;;;5001541;28;20632;-73
2023/08/21 03:00:37;;;;;;;9.80;7.70;;;;;;;;;;4990364;28;20312;-73
2023/08/21 03:03:42;;;;;;;11.50;7.93;;;;;;;;;;5012552;28;20653;-73
2023/08/21 03:06:46;;;;;;;9.30;8.50;;;;;;;;;;5012486;28;20185;-72
2023/08/21 03:09:50;;;;;;;14.00;8.87;;;;;;;;;;5013226;28;20177;-72
2023/08/21 03:12:55;;;;;;;11.90;9.00;;;;;;;;;;5012401;28;20225;-72
2023/08/21 03:15:59;;;;;;;11.47;8.20;;;;;;;;;;5013484;28;20186;-72
2023/08/21 03:19:04;;;;;;;11.20;8.50;;;;;;;;;;5012396;28;20186;-73
2023/08/21 03:22:09;;;;;;;10.53;8.10;;;;;;;;;;5013292;28;20213;-72
2023/08/21 03:25:13;;;;;;;8.73;7.80;;;;;;;;;;5012264;28;20193;-73
2023/08/21 03:28:17;;;;;;;8.80;8.00;;;;;;;;;;5013672;28;20545;-72
2023/08/21 03:31:22;;;;;;;11.80;7.63;;;;;;;;;;5004868;28;20684;-73
2023/08/21 03:34:26;;;;;;;9.20;8.27;;;;;;;;;;5016169;28;20205;-73
2023/08/21 03:37:34;;;;;;;8.97;8.07;;;;;;;;;;5016803;28;20186;-73
2023/08/21 03:40:39;;;;;;;13.37;8.73;;;;;;;;;;4994127;28;20209;-73
2023/08/21 03:43:43;;;;;;;9.57;8.57;;;;;;;;;;5016472;28;20182;-73
2023/08/21 03:46:47;;;;;;;9.10;8.20;;;;;;;;;;5016070;28;20640;-73
2023/08/21 03:49:52;;;;;;;10.37;8.00;;;;;;;;;;5015733;28;20177;-72
2023/08/21 03:52:59;;;;;;;9.27;8.17;;;;;;;;;;5004437;28;20217;-73
2023/08/21 03:56:03;;;;;;;9.47;8.00;;;;;;;;;;5015687;28;20186;-73
2023/08/21 03:59:07;;;;;;;9.23;7.73;;;;;;;;;;5015892;28;20185;-72
2023/08/21 04:02:11;;;;;;;10.53;9.37;;;;;;;;;;5004367;28;20213;-72
2023/08/21 04:05:16;;;;;;;10.17;8.33;;;;;;;;;;5015701;28;20222;-73
2023/08/21 04:08:19;;;;;;;10.77;8.93;;;;;;;;;;5004376;28;20657;-72
2023/08/21 04:11:23;;;;;;;9.63;8.63;;;;;;;;;;5004172;28;20213;-72
2023/08/21 04:14:27;;;;;;;9.80;7.97;;;;;;;;;;5015627;28;20633;-72
2023/08/21 04:17:32;;;;;;;10.43;8.43;;;;;;;;;;5015490;28;20177;-72
2023/08/21 04:20:37;;;;;;;13.57;8.30;;;;;;;;;;5004105;28;20225;-72
2023/08/21 04:23:41;;;;;;;10.30;8.33;;;;;;;;;;5003770;28;20545;-72
2023/08/21 04:26:45;;;;;;;11.57;8.70;;;;;;;;;;5016156;28;20181;-72
2023/08/21 04:29:49;;;;;;;10.70;8.17;;;;;;;;;;5015339;28;20190;-72
2023/08/21 04:32:53;;;;;;;10.57;8.10;;;;;;;;;;5015531;28;20221;-73
2023/08/21 04:35:58;;;;;;;11.93;8.23;;;;;;;;;;5007836;28;20201;-72
2023/08/21 04:39:02;;;;;;;11.30;8.30;;;;;;;;;;5012480;28;20186;-71
2023/08/21 04:42:07;;;;;;;12.67;8.20;;;;;;;;;;5005103;28;20213;-72
2023/08/21 04:45:11;;;;;;;9.97;7.80;;;;;;;;;;5004685;28;20178;-72
2023/08/21 04:48:16;;;;;;;9.90;8.33;;;;;;;;;;5043102;28;20176;-73
2023/08/21 04:51:24;;;;;;;8.93;8.00;;;;;;;;;;5043099;28;20212;-72
2023/08/21 04:54:28;;;;;;;11.73;8.50;;;;;;;;;;5043051;28;20179;-73
2023/08/21 04:57:32;;;;;;;9.40;8.30;;;;;;;;;;5043194;28;20176;-73
2023/08/21 05:00:36;;;;;;;11.80;8.13;;;;;;;;;;5043245;28;20203;-73
2023/08/21 05:03:41;;;;;;;11.67;8.30;;;;;;;;;;5042739;28;20176;-73
2023/08/21 05:06:45;;;;;;;9.87;8.50;;;;;;;;;;5042708;28;20196;-73
2023/08/21 05:09:50;;;;;;;8.87;7.97;;;;;;;;;;5031219;28;20204;-73
2023/08/21 05:12:57;;;;;;;9.83;8.10;;;;;;;;;;5042553;28;20568;-73
2023/08/21 05:16:02;;;;;;;9.50;8.57;;;;;;;;;;5031090;28;20188;-73
2023/08/21 05:19:11;;;;;;;13.17;8.87;;;;;;;;;;5042671;28;20176;-73
2023/08/21 05:22:15;;;;;;;11.93;8.97;;;;;;;;;;5042736;28;20227;-73
2023/08/21 05:25:20;;;;;;;9.93;8.93;;;;;;;;;;5030998;28;20200;-73
2023/08/21 05:28:24;;;;;;;9.43;8.43;;;;;;;;;;5030606;28;20199;-72
2023/08/21 05:31:29;;;;;;;13.10;8.97;;;;;;;;;;5042039;28;20207;-72
2023/08/21 05:34:33;;;;;;;10.40;8.63;;;;;;;;;;5041619;28;20204;-73
2023/08/21 05:37:37;;;;;;;11.97;8.97;;;;;;;;;;5041905;28;20184;-72
2023/08/21 05:40:42;;;;;;;11.57;9.40;;;;;;;;;;5041785;28;20204;-72
2023/08/21 05:43:47;;;;;;;13.97;9.47;;;;;;;;;;5041835;28;20181;-73
2023/08/21 05:46:54;;;;;;;15.57;9.40;;;;;;;;;;5041851;28;20176;-73
2023/08/21 05:49:58;;;;;;;11.27;8.97;;;;;;;;;;5041822;28;20184;-73
2023/08/21 05:53:05;;;;;;;13.60;9.43;;;;;;;;;;5001653;28;20221;-73
2023/08/21 05:56:10;;;;;;;12.80;9.30;;;;;;;;;;5002408;28;20178;-73
2023/08/21 05:59:27;;;;;;;14.27;8.87;;;;;;;;;;4980180;28;20181;-73
2023/08/21 06:02:31;;;;;;;10.70;8.40;;;;;;;;;;5002187;28;20709;-74
2023/08/21 06:05:36;;;;;;;10.13;8.40;;;;;;;;;;4982724;28;20196;-72
2023/08/21 06:08:41;;;;;;;14.03;8.40;;;;;;;;;;5010406;28;20189;-72
2023/08/21 06:11:45;;;;;;;9.30;8.03;;;;;;;;;;5010468;28;20212;-73
2023/08/21 06:14:49;;;;;;;10.63;8.83;;;;;;;;;;5009668;28;20176;-72
2023/08/21 06:17:54;;;;;;;10.03;9.03;;;;;;;;;;5020932;28;20190;-72
2023/08/21 06:20:58;;;;;;;13.00;10.07;;;;;;;;;;5033970;28;20212;-73
2023/08/21 06:24:03;;;;;;;11.03;9.30;;;;;;;;;;5021363;28;20199;-72
2023/08/21 06:27:07;;;;;;;11.10;9.50;;;;;;;;;;5033001;28;20181;-72
2023/08/21 06:30:13;;;;;;;11.10;9.50;;;;;;;;;;5021234;28;20521;-72
2023/08/21 06:33:17;;;;;;;11.37;9.47;;;;;;;;;;5033326;28;20204;-72
2023/08/21 06:36:21;;;;;;;13.10;9.60;;;;;;;;;;5021303;28;20543;-72
2023/08/21 06:39:25;;;;;;;10.47;9.47;;;;;;;;;;5021201;28;20184;-72
2023/08/21 06:42:29;;;;;;;11.63;9.93;;;;;;;;;;5033108;28;20224;-72
2023/08/21 06:45:34;;;;;;;11.17;9.77;;;;;;;;;;5021135;28;20537;-72
2023/08/21 06:48:43;;;;;;;10.57;9.47;;;;;;;;;;5021014;28;20196;-72
2023/08/21 06:51:47;;;;;;;10.67;9.57;;;;;;;;;;5033348;28;20213;-72
2023/08/21 06:54:52;;;;;;;10.60;9.50;;;;;;;;;;5009728;28;20632;-72
2023/08/21 06:57:56;;;;;;;9.77;8.77;;;;;;;;;;5021189;28;20177;-72
2023/08/21 07:01:02;;;;;;;9.63;8.70;;;;;;;;;;5021037;28;20208;-72
2023/08/21 07:04:06;;;;;;;10.37;8.67;;;;;;;;;;5036591;28;20181;-72
2023/08/21 07:07:10;;;;;;;10.47;8.60;;;;;;;;;;5025275;28;20181;-72
2023/08/21 07:10:14;;;;;;;12.60;8.67;;;;;;;;;;5037394;28;20639;-72
2023/08/21 07:13:19;;;;;;;11.33;8.83;;;;;;;;;;5036993;28;20208;-72
2023/08/21 07:16:24;;;;;;;10.90;7.73;;;;;;;;;;5013494;28;20210;-72
2023/08/21 07:19:28;;;;;;;9.47;7.57;;;;;;;;;;5037043;28;20201;-73
2023/08/21 07:22:32;;;;;;;13.13;7.90;;;;;;;;;;5013359;28;20232;-72
2023/08/21 07:25:36;;;;;;;9.73;7.07;;;;;;;;;;5036746;28;20177;-72
2023/08/21 07:28:40;;;;;;;7.73;7.00;;;;;;;;;;5030913;28;20191;-72
2023/08/21 07:31:44;;;;;;;7.50;6.80;;;;;;;;;;5019853;28;20217;-72
2023/08/21 07:34:56;;;;;;;7.93;6.97;;;;;;;;;;5001847;28;20214;-71
2023/08/21 07:38:00;;;;;;;7.27;6.57;;;;;;;;;;5015326;28;20180;-72
2023/08/21 07:41:07;;;;;;;9.17;6.77;;;;;;;;;;5016935;28;20211;-73
2023/08/21 07:44:11;;;;;;;9.13;6.57;;;;;;;;;;5016210;28;20178;-72
2023/08/21 07:47:15;;;;;;;8.77;6.77;;;;;;;;;;5015914;28;20202;-72
2023/08/21 07:50:19;;;;;;;7.80;7.10;;;;;;;;;;5015793;28;20195;-72
2023/08/21 07:53:25;;;;;;;8.20;6.70;;;;;;;;;;5016523;28;20194;-72
2023/08/21 07:56:29;;;;;;;9.43;6.43;;;;;;;;;;5015645;28;20198;-73
2023/08/21 07:59:33;;;;;;;7.93;6.70;;;;;;;;;;5016402;28;20181;-72
2023/08/21 08:02:37;;;;;;;7.03;6.28;;;;;;;;;;5016204;28;20233;-73
2023/08/21 08:05:42;;;;;;;9.90;5.93;;;;;;;;;;5015776;28;20174;-73
2023/08/21 08:08:46;;;;;;;6.90;6.20;;;;;;;;;;5015615;28;20184;-73
2023/08/21 08:11:50;;;;;;;8.35;6.40;;;;;;;;;;5015332;28;20218;-72
2023/08/21 08:14:54;;;;;;;7.03;6.10;;;;;;;;;;5014977;28;20537;-72
2023/08/21 08:17:58;;;;;;;6.45;5.75;;;;;;;;;;5016048;28;20202;-72
2023/08/21 08:21:02;;;;;;;6.88;5.15;;;;;;;;;;5015935;28;20183;-73
2023/08/21 08:24:06;;;;;;;6.90;5.07;;;;;;;;;;5015220;28;20174;-73
2023/08/21 08:27:11;;;;;;;7.13;5.85;;;;;;;;;;5016172;28;20630;-73
2023/08/21 08:30:16;;;;;;;7.32;5.60;;;;;;;;;;5015370;28;20178;-73
2023/08/21 08:33:19;;;;;;;5.55;5.03;;;;;;;;;;5015692;28;20209;-73
2023/08/21 08:36:23;;;;;;;5.75;5.15;;;;;;;;;;5015281;28;20637;-73
2023/08/21 08:39:28;;;;;;;5.55;5.05;;;;;;;;;;5014970;28;20186;-73
2023/08/21 08:42:34;;;;;;;9.35;5.78;;;;;;;;;;5015442;28;20229;-73
2023/08/21 08:45:40;;;;;;;6.32;5.15;;;;;;;;;;5015913;28;20186;-73
2023/08/21 08:48:44;;;;;;;6.07;5.55;;;;;;;;;;5015917;28;20173;-73
2023/08/21 08:51:52;;;;;;;7.90;6.00;;;;;;;;;;5014959;28;20217;-73
2023/08/21 08:54:57;;;;;;;8.30;5.50;;;;;;;;;;5015463;28;20186;-73
2023/08/21 08:58:01;;;;;;;8.63;5.47;;;;;;;;;;5015275;28;20202;-72
2023/08/21 09:01:05;;;;;;;7.63;5.82;;;;;;;;;;5025788;28;20197;-72
2023/08/21 09:04:10;;;;;;;13.52;5.88;;;;;;;;;;5015242;28;20194;-73
2023/08/21 09:07:17;;;;;;;7.07;6.15;;;;;;;;;;5015168;28;20198;-73
2023/08/21 09:10:25;;;;;;;6.35;5.72;;;;;;;;;;5014251;28;20661;-73
2023/08/21 09:13:31;;;;;;;6.75;6.15;;;;;;;;;;5015355;28;20174;-73
2023/08/21 09:16:35;;;;;;;6.80;6.10;;;;;;;;;;5015224;28;20177;-73
2023/08/21 09:19:39;;;;;;;9.90;6.15;;;;;;;;;;5014144;28;20186;-73
2023/08/21 09:22:53;;;;;;;7.80;6.25;;;;;;;;;;5014778;28;20222;-72
2023/08/21 09:25:57;;;;;;;9.88;5.93;;;;;;;;;;5013449;28;20182;-73
2023/08/21 09:29:04;;;;;;;6.30;5.70;;;;;;;;;;5015075;28;20173;-73
2023/08/21 09:32:08;;;;;;;10.88;6.90;;;;;;;;;;5014713;28;20689;-73
2023/08/21 09:35:14;;;;;;;7.35;6.65;;;;;;;;;;5014671;28;20205;-73
2023/08/21 09:38:19;;;;;;;7.05;6.35;;;;;;;;;;5013974;28;20633;-73
2023/08/21 09:41:24;;;;;;;7.53;6.32;;;;;;;;;;5014511;28;20569;-73
2023/08/21 09:44:28;;;;;;;7.50;6.80;;;;;;;;;;5013967;28;20174;-73
2023/08/21 09:47:33;;;;;;;7.03;6.32;;;;;;;;;;5013707;28;20530;-73
2023/08/21 09:50:38;;;;;;;7.20;6.60;;;;;;;;;;5014623;28;20178;-73
2023/08/21 09:53:42;;;;;;;8.52;6.70;;;;;;;;;;5014287;28;20526;-73
2023/08/21 09:56:48;;;;;;;7.00;6.28;;;;;;;;;;5013725;28;20182;-73
2023/08/21 09:59:54;;;;;;;8.57;6.00;;;;;;;;;;5014503;28;20626;-73
2023/08/21 10:03:04;;;;;;;7.95;6.22;;;;;;;;;;5002123;28;20217;-73
2023/08/21 10:06:11;;;;;;;6.45;5.85;;;;;;;;;;5013291;28;20194;-73
2023/08/21 10:09:15;;;;;;;6.57;5.85;;;;;;;;;;5013310;28;20614;-73
2023/08/21 10:12:21;;;;;;;7.10;5.75;;;;;;;;;;5002236;28;20556;-73
2023/08/21 10:15:28;;;;;;;7.22;5.35;;;;;;;;;;5013481;28;20186;-73
2023/08/21 10:18:33;;;;;;;6.38;5.78;;;;;;;;;;5014054;28;20541;-73
2023/08/21 10:21:37;;;;;;;7.60;6.03;;;;;;;;;;5013918;28;20697;-73
2023/08/21 10:24:41;;;;;;;6.35;5.75;;;;;;;;;;5013869;28;20186;-73
2023/08/21 10:27:46;;;;;;;10.30;7.13;;;;;;;;;;5013707;28;20665;-73
2023/08/21 10:30:51;;;;;;;7.78;5.95;;;;;;;;;;5014265;28;20178;-73
2023/08/21 10:33:56;;;;;;;6.55;6.05;;;;;;;;;;5012987;28;20181;-73
2023/08/21 10:37:00;;;;;;;7.15;6.18;;;;;;;;;;5013687;28;20178;-73
2023/08/21 10:40:06;;;;;;;7.05;5.40;;;;;;;;;;5013578;28;20174;-73
2023/08/21 10:43:45;;;;;;;12.93;6.70;;;;;;;;;;5013441;28;20225;-73
2023/08/21 10:46:52;;;;;;;6.80;6.20;;;;;;;;;;5013608;28;20182;-73
2023/08/21 10:50:04;;;;;;;5.72;5.15;;;;;;;;;;5013507;28;20177;-73
2023/08/21 10:53:08;;;;;;;6.22;5.38;;;;;;;;;;5013362;28;20213;-73
2023/08/21 10:56:12;;;;;;;5.63;5.13;;;;;;;;;;5013388;28;20207;-73
2023/08/21 10:59:16;;;;;;;5.25;4.65;;;;;;;;;;5013370;28;20181;-73
2023/08/21 11:02:21;;;;;;;7.70;4.97;;;;;;;;;;5013180;28;20228;-72
2023/08/21 11:05:25;;;;;;;7.95;4.93;;;;;;;;;;5013592;28;20186;-73
2023/08/21 11:08:29;;;;;;;6.43;4.68;;;;;;;;;;5013409;28;20189;-73
2023/08/21 11:11:35;;;;;;;5.53;5.03;;;;;;;;;;5013197;28;20684;-73
2023/08/21 11:14:39;;;;;;;8.00;4.95;;;;;;;;;;5012469;28;20182;-73
2023/08/21 11:18:03;;;;;;;8.20;4.88;;;;;;;;;;5013298;28;20178;-73
2023/08/21 11:21:08;;;;;;;14.50;5.18;;;;;;;;;;5012645;28;20186;-73
2023/08/21 11:24:13;;;;;;;6.60;4.90;;;;;;;;;;5013260;28;20174;-73
2023/08/21 11:27:18;;;;;;;5.70;4.57;;;;;;;;;;5013134;28;20178;-73
2023/08/21 11:30:23;;;;;;;6.45;4.45;;;;;;;;;;5013333;28;20617;-73
2023/08/21 11:33:28;;;;;;;5.43;4.93;;;;;;;;;;5013188;28;20189;-73
2023/08/21 11:36:32;;;;;;;6.53;4.85;;;;;;;;;;5013283;28;20178;-73
2023/08/21 11:39:43;;;;;;;4.72;4.32;;;;;;;;;;5012994;28;20173;-73
2023/08/21 11:42:51;;;;;;;4.45;4.03;;;;;;;;;;5012785;28;20221;-73
2023/08/21 11:45:55;;;;;;;6.32;4.57;;;;;;;;;;5012406;28;20182;-73
2023/08/21 11:49:00;;;;;;;5.60;4.70;;;;;;;;;;5000869;28;20178;-73
2023/08/21 11:52:04;;;;;;;5.57;5.07;;;;;;;;;;5015818;28;20700;-73
2023/08/21 11:55:10;;;;;;;4.68;4.15;;;;;;;;;;5016416;28;20177;-73
2023/08/21 11:58:18;;;;;;;8.15;4.45;;;;;;;;;;5015848;28;20186;-72
2023/08/21 12:01:22;;;;;;;4.35;4.05;;;;;;;;;;5016593;28;20221;-73
2023/08/21 12:04:27;;;;;;;5.63;4.40;;;;;;;;;;5015968;28;20170;-73
2023/08/21 12:07:32;;;;;;;4.68;3.70;;;;;;;;;;5015805;28;20656;-73
2023/08/21 12:10:36;;;;;;;4.88;4.30;;;;;;;;;;5016576;28;20197;-73
2023/08/21 12:13:41;;;;;;;5.35;4.50;;;;;;;;;;5015919;28;20517;-73
2023/08/21 12:16:45;;;;;;;4.90;4.40;;;;;;;;;;5016186;28;20185;-73
2023/08/21 12:19:49;;;;;;;4.72;4.32;;;;;;;;;;5016341;28;20185;-74
2023/08/21 12:22:53;;;;;;;5.15;4.22;;;;;;;;;;5016176;28;20700;-73
2023/08/21 12:25:57;;;;;;;7.30;4.65;;;;;;;;;;5015502;28;20181;-73
2023/08/21 12:29:02;;;;;;;5.47;4.10;;;;;;;;;;5015929;28;20636;-74
2023/08/21 12:32:06;;;;;;;5.63;4.00;;;;;;;;;;5015899;28;20217;-73
2023/08/21 12:35:12;;;;;;;6.32;4.15;;;;;;;;;;5015602;28;20205;-73
2023/08/21 12:38:16;;;;;;;4.15;3.80;;;;;;;;;;5015662;28;20202;-73
2023/08/21 12:41:20;;;;;;;5.82;4.07;;;;;;;;;;5015782;28;20225;-73
2023/08/21 12:44:24;;;;;;;4.95;4.20;;;;;;;;;;5015732;28;20210;-73
2023/08/21 12:47:28;;;;;;;4.22;3.83;;;;;;;;;;5015501;28;20181;-73
2023/08/21 12:50:32;;;;;;;5.70;4.38;;;;;;;;;;5015536;28;20186;-73
2023/08/21 12:53:36;;;;;;;6.10;4.10;;;;;;;;;;5015522;28;20177;-73
2023/08/21 12:56:40;;;;;;;5.55;4.40;;;;;;;;;;5015279;28;20190;-73
2023/08/21 12:59:44;;;;;;;5.10;4.22;;;;;;;;;;5015339;28;20178;-73
2023/08/21 13:02:49;;;;;;;4.65;4.15;;;;;;;;;;5015051;28;20218;-74
2023/08/21 13:05:53;;;;;;;5.13;4.15;;;;;;;;;;5014594;28;20188;-74
2023/08/21 13:08:57;;;;;;;4.38;3.90;;;;;;;;;;5015222;28;20182;-73
2023/08/21 13:12:01;;;;;;;4.35;3.95;;;;;;;;;;5014985;28;20213;-74
2023/08/21 13:15:07;;;;;;;6.97;3.90;;;;;;;;;;5015249;28;20173;-74
2023/08/21 13:18:11;;;;;;;6.93;3.88;;;;;;;;;;5025460;28;20181;-74
2023/08/21 13:21:15;;;;;;;5.78;4.50;;;;;;;;;;5014692;28;20629;-73
2023/08/21 13:24:20;;;;;;;6.32;4.18;;;;;;;;;;5013965;28;20225;-74
2023/08/21 13:27:23;;;;;;;6.03;4.22;;;;;;;;;;5014760;28;20201;-73
2023/08/21 13:30:28;;;;;;;7.72;4.63;;;;;;;;;;5014637;28;20583;-73
2023/08/21 13:33:32;;;;;;;4.22;3.88;;;;;;;;;;5014687;28;20189;-73
2023/08/21 13:36:37;;;;;;;6.88;4.22;;;;;;;;;;5014491;28;20653;-74
2023/08/21 13:39:43;;;;;;;5.45;4.00;;;;;;;;;;5014698;28;20225;-74
2023/08/21 13:42:48;;;;;;;4.85;4.20;;;;;;;;;;5014340;28;20237;-73
2023/08/21 13:45:52;;;;;;;4.68;4.20;;;;;;;;;;5014606;28;20190;-74
2023/08/21 13:48:56;;;;;;;6.50;4.57;;;;;;;;;;5014264;28;20657;-73
2023/08/21 13:52:01;;;;;;;4.32;3.90;;;;;;;;;;5014527;28;20217;-74
2023/08/21 13:55:06;;;;;;;6.82;4.28;;;;;;;;;;5002493;28;20625;-74
2023/08/21 13:58:10;;;;;;;6.00;4.50;;;;;;;;;;5014473;28;20178;-73
2023/08/21 14:01:15;;;;;;;4.68;4.25;;;;;;;;;;5014252;28;20641;-73
2023/08/21 14:04:18;;;;;;;4.85;4.30;;;;;;;;;;5013219;28;20533;-73
2023/08/21 14:07:23;;;;;;;5.60;4.22;;;;;;;;;;5014625;28;20182;-73
2023/08/21 14:10:27;;;;;;;9.80;4.80;;;;;;;;;;5013999;28;20629;-73
2023/08/21 14:13:31;;;;;;;7.15;4.45;;;;;;;;;;5012783;28;20201;-73
2023/08/21 14:16:35;;;;;;;6.47;4.30;;;;;;;;;;5013616;28;20197;-73
2023/08/21 14:19:39;;;;;;;6.80;4.70;;;;;;;;;;5014428;28;20177;-73
2023/08/21 14:22:43;;;;;;;5.80;4.05;;;;;;;;;;5013780;28;20217;-73
2023/08/21 14:25:47;;;;;;;7.00;4.70;;;;;;;;;;5014074;28;20177;-74
2023/08/21 14:28:51;;;;;;;5.25;4.40;;;;;;;;;;5013213;28;20189;-74
2023/08/21 14:31:57;;;;;;;5.20;4.60;;;;;;;;;;5012901;28;20216;-74
2023/08/21 14:35:01;;;;;;;6.93;4.85;;;;;;;;;;5013598;28;20201;-73
2023/08/21 14:38:06;;;;;;;5.30;4.28;;;;;;;;;;5012864;28;20189;-73
2023/08/21 14:41:10;;;;;;;7.03;4.82;;;;;;;;;;5013890;28;20186;-73
2023/08/21 14:44:15;;;;;;;5.82;4.63;;;;;;;;;;5013803;28;20213;-73
2023/08/21 14:47:19;;;;;;;6.90;5.07;;;;;;;;;;5013561;28;20178;-73
2023/08/21 14:50:24;;;;;;;5.78;4.68;;;;;;;;;;5013507;28;20181;-73
2023/08/21 14:53:28;;;;;;;5.80;4.38;;;;;;;;;;5012645;28;20173;-73
2023/08/21 14:56:33;;;;;;;6.20;4.30;;;;;;;;;;5012708;28;20178;-73
2023/08/21 14:59:37;;;;;;;6.82;4.70;;;;;;;;;;5013145;28;20625;-73
2023/08/21 15:02:41;;;;;;;7.30;4.50;;;;;;;;;;5013276;28;20217;-73
2023/08/21 15:05:45;;;;;;;6.75;4.88;;;;;;;;;;5013887;28;20170;-73
2023/08/21 15:08:49;;;;;;;7.68;5.22;;;;;;;;;;5012438;28;20197;-73
2023/08/21 15:11:53;;;;;;;9.88;4.90;;;;;;;;;;5013142;28;20561;-73
2023/08/21 15:14:58;;;;;;;6.25;5.28;;;;;;;;;;5013388;28;20185;-73
2023/08/21 15:18:02;;;;;;;7.68;4.50;;;;;;;;;;5013095;28;20684;-73
2023/08/21 15:21:06;;;;;;;10.80;5.07;;;;;;;;;;5013005;28;20193;-73
2023/08/21 15:24:10;;;;;;;9.07;4.97;;;;;;;;;;5013369;28;20221;-73
2023/08/21 15:27:16;;;;;;;9.80;5.30;;;;;;;;;;5017077;28;20190;-73
2023/08/21 15:30:20;;;;;;;7.57;4.97;;;;;;;;;;5016435;28;20182;-73
2023/08/21 15:33:24;;;;;;;6.82;4.80;;;;;;;;;;5017258;28;20214;-73
2023/08/21 15:36:28;;;;;;;8.27;5.57;;;;;;;;;;5017106;28;20197;-73
2023/08/21 15:39:32;;;;;;;10.02;5.53;;;;;;;;;;5016917;28;20185;-73
2023/08/21 15:42:37;;;;;;;8.00;5.07;;;;;;;;;;5016739;28;20675;-73
2023/08/21 15:45:41;;;;;;;6.38;5.75;;;;;;;;;;5016756;28;20178;-73
2023/08/21 15:48:45;;;;;;;7.80;5.70;;;;;;;;;;5016744;28;20201;-73
2023/08/21 15:51:49;;;;;;;11.40;5.82;;;;;;;;;;5016025;28;20213;-73
2023/08/21 15:54:53;;;;;;;8.90;5.72;;;;;;;;;;5016589;28;20245;-73
2023/08/21 15:57:58;;;;;;;11.15;6.03;;;;;;;;;;5017168;28;20178;-73
2023/08/21 16:01:03;;;;;;;10.75;6.15;;;;;;;;;;5016399;28;20182;-73
2023/08/21 16:04:07;;;;;;;7.20;5.25;;;;;;;;;;5016359;28;20544;-73
2023/08/21 16:07:11;;;;;;;9.80;5.95;;;;;;;;;;5016197;28;20197;-73
2023/08/21 16:10:15;;;;;;;8.40;6.15;;;;;;;;;;5016680;28;20193;-73
2023/08/21 16:13:19;;;;;;;7.45;5.53;;;;;;;;;;5015424;28;20221;-73
2023/08/21 16:16:24;;;;;;;7.55;5.85;;;;;;;;;;5016514;28;20202;-73
2023/08/21 16:19:28;;;;;;;7.30;5.80;;;;;;;;;;5016482;28;20182;-73
2023/08/21 16:22:34;;;;;;;6.47;5.40;;;;;;;;;;5016198;28;20221;-73
2023/08/21 16:25:38;;;;;;;10.00;5.25;;;;;;;;;;5015367;28;20206;-73
2023/08/21 16:28:42;;;;;;;6.40;5.28;;;;;;;;;;5015831;28;20185;-73
2023/08/21 16:31:47;;;;;;;6.18;5.20;;;;;;;;;;5014973;28;20213;-73
2023/08/21 16:34:51;;;;;;;6.93;5.45;;;;;;;;;;5014705;28;20202;-73
2023/08/21 16:37:55;;;;;;;7.00;5.63;;;;;;;;;;5015932;28;20625;-73
2023/08/21 16:41:00;;;;;;;10.32;5.70;;;;;;;;;;5015806;28;20521;-73
2023/08/21 16:44:04;;;;;;;8.60;5.65;;;;;;;;;;5014843;28;20201;-73
2023/08/21 16:47:09;;;;;;;8.07;5.55;;;;;;;;;;5015753;28;20173;-73
2023/08/21 16:50:13;;;;;;;6.43;5.65;;;;;;;;;;5015819;28;20174;-73
2023/08/21 16:53:18;;;;;;;9.48;5.43;;;;;;;;;;5014526;28;20217;-74
2023/08/21 16:56:22;;;;;;;5.63;5.13;;;;;;;;;;5014663;28;20182;-73
2023/08/21 16:59:26;;;;;;;8.65;6.10;;;;;;;;;;5014466;28;20178;-73
2023/08/21 17:02:30;;;;;;;7.82;5.72;;;;;;;;;;5015144;28;20213;-73
2023/08/21 17:05:35;;;;;;;6.97;6.28;;;;;;;;;;5015016;28;20213;-73
2023/08/21 17:08:40;;;;;;;12.18;6.13;;;;;;;;;;5015041;28;20201;-73
2023/08/21 17:11:44;;;;;;;12.43;5.90;;;;;;;;;;5014311;28;20222;-73
2023/08/21 17:14:48;;;;;;;11.13;6.75;;;;;;;;;;5015198;28;20178;-73
2023/08/21 17:17:52;;;;;;;8.50;6.97;;;;;;;;;;5014913;28;20178;-73
2023/08/21 17:20:56;;;;;;;8.60;5.88;;;;;;;;;;5014285;28;20174;-73
2023/08/21 17:24:00;;;;;;;8.77;6.00;;;;;;;;;;5014212;28;20202;-73
2023/08/21 17:27:04;;;;;;;9.50;6.13;;;;;;;;;;5013947;28;20182;-73
2023/08/21 17:30:09;;;;;;;10.52;5.85;;;;;;;;;;5014789;28;20530;-73
2023/08/21 17:33:13;;;;;;;11.93;6.22;;;;;;;;;;5014550;28;20221;-73
2023/08/21 17:36:18;;;;;;;61.33;11.80;;;;;;;;;;5014588;28;20179;-73
2023/08/21 17:39:23;;;;;;;17.25;6.72;;;;;;;;;;5014633;28;20550;-73
2023/08/21 17:42:27;;;;;;;17.08;7.15;;;;;;;;;;5014754;28;20224;-73
2023/08/21 17:45:32;;;;;;;11.88;6.07;;;;;;;;;;5013834;28;20210;-73
2023/08/21 17:48:37;;;;;;;10.60;6.40;;;;;;;;;;5012969;28;20182;-73
2023/08/21 17:51:41;;;;;;;9.55;5.70;;;;;;;;;;5013817;28;20683;-73
2023/08/21 17:54:45;;;;;;;13.30;6.30;;;;;;;;;;5014353;28;20180;-73
2023/08/21 17:57:52;;;;;;;12.35;6.10;;;;;;;;;;5014326;28;20189;-73
2023/08/21 18:00:57;;;;;;;28.92;8.15;;;;;;;;;;5014520;28;20183;-73
2023/08/21 18:04:01;;;;;;;18.33;6.93;;;;;;;;;;5013264;28;20175;-73
2023/08/21 18:07:05;;;;;;;14.75;6.93;;;;;;;;;;5014402;28;20188;-73
2023/08/21 18:10:09;;;;;;;11.70;7.28;;;;;;;;;;5014358;28;20182;-74
2023/08/21 18:13:13;;;;;;;12.20;7.55;;;;;;;;;;5013892;28;20221;-73
2023/08/21 18:16:19;;;;;;;11.90;7.38;;;;;;;;;;5013398;28;20679;-74
2023/08/21 18:19:23;;;;;;;12.38;7.53;;;;;;;;;;5014446;28;20177;-73
2023/08/21 18:22:27;;;;;;;9.00;7.20;;;;;;;;;;5014036;28;20214;-73